sensor_id;sensor_type;location;lat;lon;timestamp;P1;durP1;ratioP1;P2;durP2;ratioP2
65656;SDS011;57397;50.096;14.404;2023-02-22T00:00:38;2.63;;;1.70;;
65656;SDS011;57397;50.096;14.404;2023-02-22T00:03:18;2.63;;;1.88;;
65656;SDS011;57397;50.096;14.404;2023-02-22T00:05:49;3.17;;;1.80;;
65656;SDS011;57397;50.096;14.404;2023-02-22T00:08:18;2.88;;;2.08;;
65656;SDS011;57397;50.096;14.404;2023-02-22T00:10:45;3.28;;;1.98;;
65656;SDS011;57397;50.096;14.404;2023-02-22T00:13:11;2.60;;;1.90;;
65656;SDS011;57397;50.096;14.404;2023-02-22T00:15:38;2.67;;;2.00;;
65656;SDS011;57397;50.096;14.404;2023-02-22T00:18:05;2.03;;;1.65;;
65656;SDS011;57397;50.096;14.404;2023-02-22T00:20:37;2.50;;;1.85;;
65656;SDS011;57397;50.096;14.404;2023-02-22T00:23:04;2.67;;;1.70;;
65656;SDS011;57397;50.096;14.404;2023-02-22T00:25:34;2.67;;;1.80;;
65656;SDS011;57397;50.096;14.404;2023-02-22T00:28:00;2.40;;;1.83;;
65656;SDS011;57397;50.096;14.404;2023-02-22T00:30:27;3.22;;;1.92;;
65656;SDS011;57397;50.096;14.404;2023-02-22T00:32:54;2.90;;;1.92;;
65656;SDS011;57397;50.096;14.404;2023-02-22T00:35:22;3.05;;;1.88;;
65656;SDS011;57397;50.096;14.404;2023-02-22T00:37:49;2.60;;;1.65;;
65656;SDS011;57397;50.096;14.404;2023-02-22T00:40:21;2.35;;;1.83;;
65656;SDS011;57397;50.096;14.404;2023-02-22T00:42:48;2.92;;;1.85;;
65656;SDS011;57397;50.096;14.404;2023-02-22T00:45:15;2.50;;;1.70;;
65656;SDS011;57397;50.096;14.404;2023-02-22T00:47:42;2.58;;;1.48;;
65656;SDS011;57397;50.096;14.404;2023-02-22T00:50:07;2.58;;;1.60;;
65656;SDS011;57397;50.096;14.404;2023-02-22T00:52:34;2.70;;;1.75;;
65656;SDS011;57397;50.096;14.404;2023-02-22T00:55:00;3.67;;;1.80;;
65656;SDS011;57397;50.096;14.404;2023-02-22T00:57:26;3.20;;;2.03;;
65656;SDS011;57397;50.096;14.404;2023-02-22T00:59:52;2.75;;;1.77;;
65656;SDS011;57397;50.096;14.404;2023-02-22T01:02:17;2.53;;;1.60;;
65656;SDS011;57397;50.096;14.404;2023-02-22T01:04:43;3.05;;;1.85;;
65656;SDS011;57397;50.096;14.404;2023-02-22T01:07:09;2.67;;;1.80;;
65656;SDS011;57397;50.096;14.404;2023-02-22T01:09:37;2.63;;;1.70;;
65656;SDS011;57397;50.096;14.404;2023-02-22T01:12:03;2.40;;;1.83;;
65656;SDS011;57397;50.096;14.404;2023-02-22T01:14:29;2.75;;;1.90;;
65656;SDS011;57397;50.096;14.404;2023-02-22T01:16:55;2.40;;;1.60;;
65656;SDS011;57397;50.096;14.404;2023-02-22T01:19:21;2.30;;;1.70;;
65656;SDS011;57397;50.096;14.404;2023-02-22T01:21:47;3.72;;;1.70;;
65656;SDS011;57397;50.096;14.404;2023-02-22T01:24:14;4.38;;;1.77;;
65656;SDS011;57397;50.096;14.404;2023-02-22T01:26:43;2.60;;;1.70;;
65656;SDS011;57397;50.096;14.404;2023-02-22T01:29:13;2.47;;;1.52;;
65656;SDS011;57397;50.096;14.404;2023-02-22T01:31:40;3.25;;;1.92;;
65656;SDS011;57397;50.096;14.404;2023-02-22T01:34:08;2.25;;;1.75;;
65656;SDS011;57397;50.096;14.404;2023-02-22T01:36:34;4.05;;;1.70;;
65656;SDS011;57397;50.096;14.404;2023-02-22T01:39:00;2.85;;;1.70;;
65656;SDS011;57397;50.096;14.404;2023-02-22T01:41:26;2.90;;;1.67;;
65656;SDS011;57397;50.096;14.404;2023-02-22T01:43:51;2.60;;;1.75;;
65656;SDS011;57397;50.096;14.404;2023-02-22T01:48:49;2.70;;;1.95;;
65656;SDS011;57397;50.096;14.404;2023-02-22T01:51:19;2.70;;;1.80;;
65656;SDS011;57397;50.096;14.404;2023-02-22T01:56:23;3.00;;;1.70;;
65656;SDS011;57397;50.096;14.404;2023-02-22T01:58:55;2.75;;;1.80;;
65656;SDS011;57397;50.096;14.404;2023-02-22T02:01:23;2.58;;;1.90;;
65656;SDS011;57397;50.096;14.404;2023-02-22T02:03:49;2.50;;;1.80;;
65656;SDS011;57397;50.096;14.404;2023-02-22T02:06:16;2.95;;;1.70;;
65656;SDS011;57397;50.096;14.404;2023-02-22T02:08:45;2.83;;;1.77;;
65656;SDS011;57397;50.096;14.404;2023-02-22T02:11:17;2.28;;;1.70;;
65656;SDS011;57397;50.096;14.404;2023-02-22T02:13:45;2.90;;;1.70;;
65656;SDS011;57397;50.096;14.404;2023-02-22T02:16:11;3.40;;;2.05;;
65656;SDS011;57397;50.096;14.404;2023-02-22T02:18:37;2.85;;;1.80;;
65656;SDS011;57397;50.096;14.404;2023-02-22T02:44:04;2.53;;;1.80;;
65656;SDS011;57397;50.096;14.404;2023-02-22T02:46:16;2.78;;;1.90;;
65656;SDS011;57397;50.096;14.404;2023-02-22T02:48:44;2.47;;;1.80;;
65656;SDS011;57397;50.096;14.404;2023-02-22T02:51:14;2.97;;;1.90;;
65656;SDS011;57397;50.096;14.404;2023-02-22T02:53:41;3.05;;;1.80;;
65656;SDS011;57397;50.096;14.404;2023-02-22T02:56:08;3.88;;;2.05;;
65656;SDS011;57397;50.096;14.404;2023-02-22T02:58:41;3.13;;;2.03;;
65656;SDS011;57397;50.096;14.404;2023-02-22T03:01:09;3.55;;;2.17;;
65656;SDS011;57397;50.096;14.404;2023-02-22T03:03:44;2.63;;;1.73;;
65656;SDS011;57397;50.096;14.404;2023-02-22T03:14:20;2.60;;;2.03;;
65656;SDS011;57397;50.096;14.404;2023-02-22T03:19:21;2.50;;;1.77;;
65656;SDS011;57397;50.096;14.404;2023-02-22T03:22:02;3.20;;;2.05;;
65656;SDS011;57397;50.096;14.404;2023-02-22T03:24:58;2.88;;;1.75;;
65656;SDS011;57397;50.096;14.404;2023-02-22T03:27:33;3.97;;;2.15;;
65656;SDS011;57397;50.096;14.404;2023-02-22T03:30:03;4.07;;;2.22;;
65656;SDS011;57397;50.096;14.404;2023-02-22T03:32:32;4.35;;;2.30;;
65656;SDS011;57397;50.096;14.404;2023-02-22T03:35:08;3.60;;;2.10;;
65656;SDS011;57397;50.096;14.404;2023-02-22T03:37:53;3.10;;;1.90;;
65656;SDS011;57397;50.096;14.404;2023-02-22T03:40:21;4.90;;;2.20;;
65656;SDS011;57397;50.096;14.404;2023-02-22T03:42:51;3.47;;;1.98;;
65656;SDS011;57397;50.096;14.404;2023-02-22T03:45:23;2.80;;;2.05;;
65656;SDS011;57397;50.096;14.404;2023-02-22T03:47:50;2.88;;;1.88;;
65656;SDS011;57397;50.096;14.404;2023-02-22T03:50:22;2.97;;;2.05;;
65656;SDS011;57397;50.096;14.404;2023-02-22T03:52:53;3.13;;;2.00;;
65656;SDS011;57397;50.096;14.404;2023-02-22T03:55:20;2.47;;;1.95;;
65656;SDS011;57397;50.096;14.404;2023-02-22T03:57:49;3.15;;;2.05;;
65656;SDS011;57397;50.096;14.404;2023-02-22T04:00:18;3.60;;;2.30;;
65656;SDS011;57397;50.096;14.404;2023-02-22T04:02:47;3.13;;;1.95;;
65656;SDS011;57397;50.096;14.404;2023-02-22T04:05:12;2.72;;;2.08;;
65656;SDS011;57397;50.096;14.404;2023-02-22T04:07:38;3.20;;;2.00;;
65656;SDS011;57397;50.096;14.404;2023-02-22T04:10:05;3.20;;;2.00;;
65656;SDS011;57397;50.096;14.404;2023-02-22T04:12:33;4.45;;;2.10;;
65656;SDS011;57397;50.096;14.404;2023-02-22T04:14:59;2.72;;;2.10;;
65656;SDS011;57397;50.096;14.404;2023-02-22T04:17:25;3.08;;;2.08;;
65656;SDS011;57397;50.096;14.404;2023-02-22T04:19:50;4.25;;;2.20;;
65656;SDS011;57397;50.096;14.404;2023-02-22T04:22:16;3.00;;;2.00;;
65656;SDS011;57397;50.096;14.404;2023-02-22T04:24:42;2.90;;;2.00;;
65656;SDS011;57397;50.096;14.404;2023-02-22T04:27:07;3.05;;;1.92;;
65656;SDS011;57397;50.096;14.404;2023-02-22T04:29:33;3.20;;;1.90;;
65656;SDS011;57397;50.096;14.404;2023-02-22T04:31:58;3.60;;;2.20;;
65656;SDS011;57397;50.096;14.404;2023-02-22T04:34:24;3.17;;;2.13;;
65656;SDS011;57397;50.096;14.404;2023-02-22T04:36:49;4.35;;;2.17;;
65656;SDS011;57397;50.096;14.404;2023-02-22T04:39:15;2.60;;;1.77;;
65656;SDS011;57397;50.096;14.404;2023-02-22T04:41:40;3.17;;;2.03;;
65656;SDS011;57397;50.096;14.404;2023-02-22T04:44:06;4.88;;;2.00;;
65656;SDS011;57397;50.096;14.404;2023-02-22T04:46:31;2.88;;;1.80;;
65656;SDS011;57397;50.096;14.404;2023-02-22T04:48:57;4.18;;;2.00;;
65656;SDS011;57397;50.096;14.404;2023-02-22T04:51:23;3.35;;;1.92;;
65656;SDS011;57397;50.096;14.404;2023-02-22T04:53:49;3.55;;;2.10;;
65656;SDS011;57397;50.096;14.404;2023-02-22T04:56:18;2.70;;;1.92;;
65656;SDS011;57397;50.096;14.404;2023-02-22T04:58:44;3.05;;;2.13;;
65656;SDS011;57397;50.096;14.404;2023-02-22T05:01:09;3.53;;;2.20;;
65656;SDS011;57397;50.096;14.404;2023-02-22T05:03:38;3.50;;;2.05;;
65656;SDS011;57397;50.096;14.404;2023-02-22T05:06:03;3.15;;;2.10;;
65656;SDS011;57397;50.096;14.404;2023-02-22T05:08:29;3.42;;;2.08;;
65656;SDS011;57397;50.096;14.404;2023-02-22T05:10:54;2.67;;;2.10;;
65656;SDS011;57397;50.096;14.404;2023-02-22T05:13:20;3.05;;;1.92;;
65656;SDS011;57397;50.096;14.404;2023-02-22T05:15:46;5.03;;;2.28;;
65656;SDS011;57397;50.096;14.404;2023-02-22T05:18:12;2.85;;;2.05;;
65656;SDS011;57397;50.096;14.404;2023-02-22T05:20:38;2.70;;;1.80;;
65656;SDS011;57397;50.096;14.404;2023-02-22T05:23:03;3.08;;;2.00;;
65656;SDS011;57397;50.096;14.404;2023-02-22T05:25:30;4.32;;;2.17;;
65656;SDS011;57397;50.096;14.404;2023-02-22T05:27:56;3.30;;;2.00;;
65656;SDS011;57397;50.096;14.404;2023-02-22T05:30:28;2.67;;;1.83;;
65656;SDS011;57397;50.096;14.404;2023-02-22T05:32:55;3.40;;;2.08;;
65656;SDS011;57397;50.096;14.404;2023-02-22T05:35:22;3.13;;;2.20;;
65656;SDS011;57397;50.096;14.404;2023-02-22T05:37:48;2.90;;;2.10;;
65656;SDS011;57397;50.096;14.404;2023-02-22T05:40:20;2.47;;;1.75;;
65656;SDS011;57397;50.096;14.404;2023-02-22T05:42:47;4.00;;;1.95;;
65656;SDS011;57397;50.096;14.404;2023-02-22T05:45:14;2.65;;;2.00;;
65656;SDS011;57397;50.096;14.404;2023-02-22T05:47:40;3.30;;;2.00;;
65656;SDS011;57397;50.096;14.404;2023-02-22T05:50:07;3.33;;;2.15;;
65656;SDS011;57397;50.096;14.404;2023-02-22T05:52:33;3.92;;;1.98;;
65656;SDS011;57397;50.096;14.404;2023-02-22T05:54:58;3.40;;;2.03;;
65656;SDS011;57397;50.096;14.404;2023-02-22T05:57:24;3.00;;;2.00;;
65656;SDS011;57397;50.096;14.404;2023-02-22T05:59:49;2.65;;;1.77;;
65656;SDS011;57397;50.096;14.404;2023-02-22T06:02:15;3.05;;;2.10;;
65656;SDS011;57397;50.096;14.404;2023-02-22T06:04:44;3.85;;;1.90;;
65656;SDS011;57397;50.096;14.404;2023-02-22T06:07:10;2.65;;;1.70;;
65656;SDS011;57397;50.096;14.404;2023-02-22T06:09:36;2.72;;;1.80;;
65656;SDS011;57397;50.096;14.404;2023-02-22T06:12:02;2.92;;;1.83;;
65656;SDS011;57397;50.096;14.404;2023-02-22T06:14:27;3.58;;;2.20;;
65656;SDS011;57397;50.096;14.404;2023-02-22T06:16:54;3.38;;;2.00;;
65656;SDS011;57397;50.096;14.404;2023-02-22T06:19:19;2.80;;;1.80;;
65656;SDS011;57397;50.096;14.404;2023-02-22T06:21:51;2.75;;;1.83;;
65656;SDS011;57397;50.096;14.404;2023-02-22T06:24:19;3.42;;;2.03;;
65656;SDS011;57397;50.096;14.404;2023-02-22T06:26:45;2.95;;;1.83;;
65656;SDS011;57397;50.096;14.404;2023-02-22T06:29:10;2.97;;;1.90;;
65656;SDS011;57397;50.096;14.404;2023-02-22T06:31:36;2.95;;;1.73;;
65656;SDS011;57397;50.096;14.404;2023-02-22T06:34:02;2.78;;;1.77;;
65656;SDS011;57397;50.096;14.404;2023-02-22T06:36:27;2.40;;;1.75;;
65656;SDS011;57397;50.096;14.404;2023-02-22T06:38:55;2.95;;;1.80;;
65656;SDS011;57397;50.096;14.404;2023-02-22T06:41:20;2.92;;;1.92;;
65656;SDS011;57397;50.096;14.404;2023-02-22T06:43:46;2.45;;;1.70;;
65656;SDS011;57397;50.096;14.404;2023-02-22T06:46:12;2.75;;;1.90;;
65656;SDS011;57397;50.096;14.404;2023-02-22T06:48:38;2.60;;;1.88;;
65656;SDS011;57397;50.096;14.404;2023-02-22T06:51:07;3.25;;;1.90;;
65656;SDS011;57397;50.096;14.404;2023-02-22T06:53:34;3.60;;;1.80;;
65656;SDS011;57397;50.096;14.404;2023-02-22T06:55:59;2.90;;;1.75;;
65656;SDS011;57397;50.096;14.404;2023-02-22T06:58:26;2.85;;;1.83;;
65656;SDS011;57397;50.096;14.404;2023-02-22T07:00:52;3.70;;;1.90;;
65656;SDS011;57397;50.096;14.404;2023-02-22T07:03:18;2.55;;;1.83;;
65656;SDS011;57397;50.096;14.404;2023-02-22T07:05:44;3.25;;;2.15;;
65656;SDS011;57397;50.096;14.404;2023-02-22T07:08:09;3.22;;;1.95;;
65656;SDS011;57397;50.096;14.404;2023-02-22T07:10:36;3.22;;;1.98;;
65656;SDS011;57397;50.096;14.404;2023-02-22T07:13:02;4.07;;;2.00;;
65656;SDS011;57397;50.096;14.404;2023-02-22T07:15:29;3.53;;;2.20;;
65656;SDS011;57397;50.096;14.404;2023-02-22T07:17:55;3.70;;;2.33;;
65656;SDS011;57397;50.096;14.404;2023-02-22T07:20:21;3.88;;;2.20;;
65656;SDS011;57397;50.096;14.404;2023-02-22T07:22:48;3.22;;;1.95;;
65656;SDS011;57397;50.096;14.404;2023-02-22T07:25:14;3.72;;;2.13;;
65656;SDS011;57397;50.096;14.404;2023-02-22T07:27:40;3.17;;;2.15;;
65656;SDS011;57397;50.096;14.404;2023-02-22T07:30:17;4.32;;;2.00;;
65656;SDS011;57397;50.096;14.404;2023-02-22T07:32:49;2.90;;;2.08;;
65656;SDS011;57397;50.096;14.404;2023-02-22T07:35:16;2.95;;;2.10;;
65656;SDS011;57397;50.096;14.404;2023-02-22T07:37:47;2.67;;;2.00;;
65656;SDS011;57397;50.096;14.404;2023-02-22T07:40:12;3.63;;;2.03;;
65656;SDS011;57397;50.096;14.404;2023-02-22T07:45:19;3.28;;;2.00;;
65656;SDS011;57397;50.096;14.404;2023-02-22T07:47:46;3.63;;;2.28;;
65656;SDS011;57397;50.096;14.404;2023-02-22T07:50:13;3.00;;;2.03;;
65656;SDS011;57397;50.096;14.404;2023-02-22T07:52:39;3.45;;;2.05;;
65656;SDS011;57397;50.096;14.404;2023-02-22T07:55:05;3.28;;;2.10;;
65656;SDS011;57397;50.096;14.404;2023-02-22T07:57:31;4.05;;;2.08;;
65656;SDS011;57397;50.096;14.404;2023-02-22T07:59:57;2.85;;;1.90;;
65656;SDS011;57397;50.096;14.404;2023-02-22T08:02:23;3.00;;;2.05;;
65656;SDS011;57397;50.096;14.404;2023-02-22T08:04:49;2.25;;;1.77;;
65656;SDS011;57397;50.096;14.404;2023-02-22T08:07:15;3.67;;;2.28;;
65656;SDS011;57397;50.096;14.404;2023-02-22T08:09:40;3.58;;;2.15;;
65656;SDS011;57397;50.096;14.404;2023-02-22T08:12:06;3.13;;;2.00;;
65656;SDS011;57397;50.096;14.404;2023-02-22T08:14:31;3.63;;;2.20;;
65656;SDS011;57397;50.096;14.404;2023-02-22T08:16:57;4.22;;;1.80;;
65656;SDS011;57397;50.096;14.404;2023-02-22T08:19:22;3.70;;;2.33;;
65656;SDS011;57397;50.096;14.404;2023-02-22T08:21:48;3.60;;;2.25;;
65656;SDS011;57397;50.096;14.404;2023-02-22T08:24:13;3.67;;;2.25;;
65656;SDS011;57397;50.096;14.404;2023-02-22T08:26:45;3.10;;;2.03;;
65656;SDS011;57397;50.096;14.404;2023-02-22T08:29:11;3.55;;;2.30;;
65656;SDS011;57397;50.096;14.404;2023-02-22T08:31:38;3.22;;;2.10;;
65656;SDS011;57397;50.096;14.404;2023-02-22T08:34:04;3.38;;;2.30;;
65656;SDS011;57397;50.096;14.404;2023-02-22T08:36:30;3.45;;;2.33;;
65656;SDS011;57397;50.096;14.404;2023-02-22T08:38:57;4.30;;;2.60;;
65656;SDS011;57397;50.096;14.404;2023-02-22T08:41:23;3.63;;;2.20;;
65656;SDS011;57397;50.096;14.404;2023-02-22T08:43:48;3.30;;;2.50;;
65656;SDS011;57397;50.096;14.404;2023-02-22T08:46:16;3.53;;;2.38;;
65656;SDS011;57397;50.096;14.404;2023-02-22T08:48:49;4.50;;;2.47;;
65656;SDS011;57397;50.096;14.404;2023-02-22T08:51:15;4.28;;;2.30;;
65656;SDS011;57397;50.096;14.404;2023-02-22T08:53:40;3.50;;;2.45;;
65656;SDS011;57397;50.096;14.404;2023-02-22T08:56:06;3.53;;;2.42;;
65656;SDS011;57397;50.096;14.404;2023-02-22T08:58:32;3.15;;;2.20;;
65656;SDS011;57397;50.096;14.404;2023-02-22T09:00:57;3.10;;;2.30;;
65656;SDS011;57397;50.096;14.404;2023-02-22T09:03:23;4.53;;;2.60;;
65656;SDS011;57397;50.096;14.404;2023-02-22T09:05:48;3.30;;;2.50;;
65656;SDS011;57397;50.096;14.404;2023-02-22T09:08:15;3.38;;;2.38;;
65656;SDS011;57397;50.096;14.404;2023-02-22T09:10:41;3.58;;;2.30;;
65656;SDS011;57397;50.096;14.404;2023-02-22T09:13:09;3.83;;;2.35;;
65656;SDS011;57397;50.096;14.404;2023-02-22T09:15:34;3.55;;;2.30;;
65656;SDS011;57397;50.096;14.404;2023-02-22T09:18:00;4.43;;;2.70;;
65656;SDS011;57397;50.096;14.404;2023-02-22T09:20:26;3.45;;;2.50;;
65656;SDS011;57397;50.096;14.404;2023-02-22T09:22:52;3.50;;;2.20;;
65656;SDS011;57397;50.096;14.404;2023-02-22T09:25:19;3.85;;;2.50;;
65656;SDS011;57397;50.096;14.404;2023-02-22T09:27:49;4.55;;;2.63;;
65656;SDS011;57397;50.096;14.404;2023-02-22T09:32:53;3.50;;;2.20;;
65656;SDS011;57397;50.096;14.404;2023-02-22T09:35:20;3.85;;;2.40;;
65656;SDS011;57397;50.096;14.404;2023-02-22T09:37:59;3.35;;;2.38;;
65656;SDS011;57397;50.096;14.404;2023-02-22T09:40:27;2.65;;;2.00;;
65656;SDS011;57397;50.096;14.404;2023-02-22T09:45:27;3.50;;;2.47;;
65656;SDS011;57397;50.096;14.404;2023-02-22T09:47:58;3.88;;;2.30;;
65656;SDS011;57397;50.096;14.404;2023-02-22T09:50:30;3.95;;;2.50;;
65656;SDS011;57397;50.096;14.404;2023-02-22T09:53:06;3.85;;;2.40;;
65656;SDS011;57397;50.096;14.404;2023-02-22T09:55:45;2.85;;;2.05;;
65656;SDS011;57397;50.096;14.404;2023-02-22T10:00:49;3.28;;;2.30;;
65656;SDS011;57397;50.096;14.404;2023-02-22T10:06:16;3.78;;;2.50;;
65656;SDS011;57397;50.096;14.404;2023-02-22T10:08:45;3.40;;;2.35;;
65656;SDS011;57397;50.096;14.404;2023-02-22T10:17:17;3.40;;;2.45;;
65656;SDS011;57397;50.096;14.404;2023-02-22T10:25:26;3.65;;;2.20;;
65656;SDS011;57397;50.096;14.404;2023-02-22T10:27:56;3.38;;;2.20;;
65656;SDS011;57397;50.096;14.404;2023-02-22T10:30:30;3.40;;;2.10;;
65656;SDS011;57397;50.096;14.404;2023-02-22T10:33:12;2.75;;;2.10;;
65656;SDS011;57397;50.096;14.404;2023-02-22T10:35:40;2.60;;;1.90;;
65656;SDS011;57397;50.096;14.404;2023-02-22T10:38:12;3.38;;;2.28;;
65656;SDS011;57397;50.096;14.404;2023-02-22T10:40:42;4.57;;;2.38;;
65656;SDS011;57397;50.096;14.404;2023-02-22T10:43:10;3.05;;;2.10;;
65656;SDS011;57397;50.096;14.404;2023-02-22T10:45:36;2.97;;;2.08;;
65656;SDS011;57397;50.096;14.404;2023-02-22T10:48:12;2.88;;;2.00;;
65656;SDS011;57397;50.096;14.404;2023-02-22T10:50:40;3.20;;;2.30;;
65656;SDS011;57397;50.096;14.404;2023-02-22T10:53:07;3.03;;;2.22;;
65656;SDS011;57397;50.096;14.404;2023-02-22T10:55:34;3.42;;;2.20;;
65656;SDS011;57397;50.096;14.404;2023-02-22T10:58:04;2.95;;;1.90;;
65656;SDS011;57397;50.096;14.404;2023-02-22T11:00:32;2.83;;;2.05;;
65656;SDS011;57397;50.096;14.404;2023-02-22T11:05:43;3.28;;;2.30;;
65656;SDS011;57397;50.096;14.404;2023-02-22T11:08:12;2.95;;;2.08;;
65656;SDS011;57397;50.096;14.404;2023-02-22T11:10:51;3.25;;;2.17;;
65656;SDS011;57397;50.096;14.404;2023-02-22T11:13:28;2.72;;;2.00;;
65656;SDS011;57397;50.096;14.404;2023-02-22T11:18:33;2.95;;;1.90;;
65656;SDS011;57397;50.096;14.404;2023-02-22T11:21:03;2.70;;;1.95;;
65656;SDS011;57397;50.096;14.404;2023-02-22T11:23:31;2.58;;;2.00;;
65656;SDS011;57397;50.096;14.404;2023-02-22T11:26:04;3.25;;;2.00;;
65656;SDS011;57397;50.096;14.404;2023-02-22T11:28:34;4.32;;;2.20;;
65656;SDS011;57397;50.096;14.404;2023-02-22T11:31:11;3.42;;;2.40;;
65656;SDS011;57397;50.096;14.404;2023-02-22T11:33:45;3.47;;;2.42;;
65656;SDS011;57397;50.096;14.404;2023-02-22T11:36:40;2.85;;;1.90;;
65656;SDS011;57397;50.096;14.404;2023-02-22T11:41:48;3.30;;;2.25;;
65656;SDS011;57397;50.096;14.404;2023-02-22T11:44:22;3.08;;;1.95;;
65656;SDS011;57397;50.096;14.404;2023-02-22T11:46:56;2.95;;;2.10;;
65656;SDS011;57397;50.096;14.404;2023-02-22T11:49:32;3.13;;;2.05;;
65656;SDS011;57397;50.096;14.404;2023-02-22T11:52:04;3.70;;;2.35;;
65656;SDS011;57397;50.096;14.404;2023-02-22T11:57:49;3.15;;;2.30;;
65656;SDS011;57397;50.096;14.404;2023-02-22T12:06:01;3.72;;;2.13;;
65656;SDS011;57397;50.096;14.404;2023-02-22T12:13:39;3.03;;;2.10;;
65656;SDS011;57397;50.096;14.404;2023-02-22T12:21:16;3.60;;;2.50;;
65656;SDS011;57397;50.096;14.404;2023-02-22T12:29:00;3.58;;;2.53;;
65656;SDS011;57397;50.096;14.404;2023-02-22T12:31:30;3.55;;;2.40;;
65656;SDS011;57397;50.096;14.404;2023-02-22T12:34:01;3.50;;;2.65;;
65656;SDS011;57397;50.096;14.404;2023-02-22T12:36:55;3.85;;;2.42;;
65656;SDS011;57397;50.096;14.404;2023-02-22T12:45:30;2.85;;;2.10;;
65656;SDS011;57397;50.096;14.404;2023-02-22T12:51:13;3.17;;;2.42;;
65656;SDS011;57397;50.096;14.404;2023-02-22T12:57:02;3.15;;;2.45;;
65656;SDS011;57397;50.096;14.404;2023-02-22T13:02:07;3.15;;;2.20;;
65656;SDS011;57397;50.096;14.404;2023-02-22T13:04:37;3.83;;;2.28;;
65656;SDS011;57397;50.096;14.404;2023-02-22T13:07:09;3.30;;;2.13;;
65656;SDS011;57397;50.096;14.404;2023-02-22T13:14:59;3.00;;;2.40;;
65656;SDS011;57397;50.096;14.404;2023-02-22T13:20:24;2.55;;;1.98;;
65656;SDS011;57397;50.096;14.404;2023-02-22T13:25:47;3.40;;;2.42;;
65656;SDS011;57397;50.096;14.404;2023-02-22T13:28:38;4.13;;;2.20;;
65656;SDS011;57397;50.096;14.404;2023-02-22T13:39:48;2.60;;;2.00;;
65656;SDS011;57397;50.096;14.404;2023-02-22T13:53:15;3.17;;;2.13;;
65656;SDS011;57397;50.096;14.404;2023-02-22T13:55:46;3.80;;;2.20;;
65656;SDS011;57397;50.096;14.404;2023-02-22T13:58:17;3.28;;;2.17;;
65656;SDS011;57397;50.096;14.404;2023-02-22T14:00:44;3.42;;;2.40;;
65656;SDS011;57397;50.096;14.404;2023-02-22T14:10:47;2.97;;;2.03;;
65656;SDS011;57397;50.096;14.404;2023-02-22T14:13:17;2.70;;;2.00;;
65656;SDS011;57397;50.096;14.404;2023-02-22T14:18:25;3.40;;;1.92;;
65656;SDS011;57397;50.096;14.404;2023-02-22T14:23:36;3.13;;;2.10;;
65656;SDS011;57397;50.096;14.404;2023-02-22T14:26:14;2.45;;;1.80;;
65656;SDS011;57397;50.096;14.404;2023-02-22T14:31:25;3.15;;;2.20;;
65656;SDS011;57397;50.096;14.404;2023-02-22T14:36:28;3.83;;;2.50;;
65656;SDS011;57397;50.096;14.404;2023-02-22T14:39:18;2.50;;;2.03;;
65656;SDS011;57397;50.096;14.404;2023-02-22T14:42:01;3.75;;;2.13;;
65656;SDS011;57397;50.096;14.404;2023-02-22T14:44:36;3.00;;;2.30;;
65656;SDS011;57397;50.096;14.404;2023-02-22T14:47:06;2.97;;;2.35;;
65656;SDS011;57397;50.096;14.404;2023-02-22T14:49:38;4.30;;;2.10;;
65656;SDS011;57397;50.096;14.404;2023-02-22T14:52:14;3.38;;;2.45;;
65656;SDS011;57397;50.096;14.404;2023-02-22T14:54:57;2.95;;;1.92;;
65656;SDS011;57397;50.096;14.404;2023-02-22T14:57:44;3.03;;;2.08;;
65656;SDS011;57397;50.096;14.404;2023-02-22T15:00:25;3.33;;;2.28;;
65656;SDS011;57397;50.096;14.404;2023-02-22T15:03:00;3.78;;;2.45;;
65656;SDS011;57397;50.096;14.404;2023-02-22T15:05:27;2.88;;;2.00;;
65656;SDS011;57397;50.096;14.404;2023-02-22T15:07:59;4.00;;;2.25;;
65656;SDS011;57397;50.096;14.404;2023-02-22T15:10:31;3.17;;;2.10;;
65656;SDS011;57397;50.096;14.404;2023-02-22T15:13:22;3.53;;;2.30;;
65656;SDS011;57397;50.096;14.404;2023-02-22T15:18:23;3.60;;;2.15;;
65656;SDS011;57397;50.096;14.404;2023-02-22T15:20:52;3.83;;;2.67;;
65656;SDS011;57397;50.096;14.404;2023-02-22T15:23:26;3.03;;;2.15;;
65656;SDS011;57397;50.096;14.404;2023-02-22T15:25:57;4.82;;;2.63;;
65656;SDS011;57397;50.096;14.404;2023-02-22T15:28:23;3.17;;;2.33;;
65656;SDS011;57397;50.096;14.404;2023-02-22T15:30:51;3.50;;;2.33;;
65656;SDS011;57397;50.096;14.404;2023-02-22T15:36:46;3.58;;;2.47;;
65656;SDS011;57397;50.096;14.404;2023-02-22T15:39:19;3.72;;;2.40;;
65656;SDS011;57397;50.096;14.404;2023-02-22T15:41:59;3.78;;;2.67;;
65656;SDS011;57397;50.096;14.404;2023-02-22T15:44:32;3.83;;;2.58;;
65656;SDS011;57397;50.096;14.404;2023-02-22T15:47:03;3.25;;;2.30;;
65656;SDS011;57397;50.096;14.404;2023-02-22T15:49:28;3.50;;;2.38;;
65656;SDS011;57397;50.096;14.404;2023-02-22T15:52:03;4.40;;;2.78;;
65656;SDS011;57397;50.096;14.404;2023-02-22T15:54:38;4.43;;;2.80;;
65656;SDS011;57397;50.096;14.404;2023-02-22T15:59:31;4.90;;;3.03;;
65656;SDS011;57397;50.096;14.404;2023-02-22T16:01:59;4.57;;;2.80;;
65656;SDS011;57397;50.096;14.404;2023-02-22T16:04:28;4.78;;;2.72;;
65656;SDS011;57397;50.096;14.404;2023-02-22T16:07:05;5.55;;;3.08;;
65656;SDS011;57397;50.096;14.404;2023-02-22T16:09:44;4.70;;;2.97;;
65656;SDS011;57397;50.096;14.404;2023-02-22T16:14:46;5.07;;;3.30;;
65656;SDS011;57397;50.096;14.404;2023-02-22T16:19:55;4.68;;;2.63;;
65656;SDS011;57397;50.096;14.404;2023-02-22T16:22:46;5.30;;;3.05;;
65656;SDS011;57397;50.096;14.404;2023-02-22T16:27:46;4.03;;;2.60;;
65656;SDS011;57397;50.096;14.404;2023-02-22T16:32:42;3.90;;;2.50;;
65656;SDS011;57397;50.096;14.404;2023-02-22T16:35:08;4.35;;;2.65;;
65656;SDS011;57397;50.096;14.404;2023-02-22T16:37:46;4.57;;;2.35;;
65656;SDS011;57397;50.096;14.404;2023-02-22T16:42:58;5.93;;;3.08;;
65656;SDS011;57397;50.096;14.404;2023-02-22T16:45:30;6.18;;;2.85;;
65656;SDS011;57397;50.096;14.404;2023-02-22T16:47:55;3.95;;;2.60;;
65656;SDS011;57397;50.096;14.404;2023-02-22T16:50:23;4.25;;;2.70;;
65656;SDS011;57397;50.096;14.404;2023-02-22T16:52:48;4.03;;;2.55;;
65656;SDS011;57397;50.096;14.404;2023-02-22T16:55:16;3.97;;;2.80;;
65656;SDS011;57397;50.096;14.404;2023-02-22T16:57:42;4.28;;;3.05;;
65656;SDS011;57397;50.096;14.404;2023-02-22T17:00:19;4.15;;;2.90;;
65656;SDS011;57397;50.096;14.404;2023-02-22T17:02:55;5.40;;;3.10;;
65656;SDS011;57397;50.096;14.404;2023-02-22T17:05:27;5.10;;;3.35;;
65656;SDS011;57397;50.096;14.404;2023-02-22T17:07:54;4.43;;;3.17;;
65656;SDS011;57397;50.096;14.404;2023-02-22T17:10:19;8.18;;;4.13;;
65656;SDS011;57397;50.096;14.404;2023-02-22T17:12:49;4.35;;;3.30;;
65656;SDS011;57397;50.096;14.404;2023-02-22T17:15:25;6.03;;;3.90;;
65656;SDS011;57397;50.096;14.404;2023-02-22T17:17:52;5.07;;;3.40;;
65656;SDS011;57397;50.096;14.404;2023-02-22T17:20:19;6.90;;;3.75;;
65656;SDS011;57397;50.096;14.404;2023-02-22T17:25:23;6.30;;;3.83;;
65656;SDS011;57397;50.096;14.404;2023-02-22T17:27:55;5.75;;;3.53;;
65656;SDS011;57397;50.096;14.404;2023-02-22T17:30:20;6.25;;;3.85;;
65656;SDS011;57397;50.096;14.404;2023-02-22T17:32:49;5.25;;;3.40;;
65656;SDS011;57397;50.096;14.404;2023-02-22T17:35:17;4.90;;;3.38;;
65656;SDS011;57397;50.096;14.404;2023-02-22T17:37:44;5.68;;;3.53;;
65656;SDS011;57397;50.096;14.404;2023-02-22T17:40:11;4.93;;;3.60;;
65656;SDS011;57397;50.096;14.404;2023-02-22T17:42:38;4.85;;;3.38;;
65656;SDS011;57397;50.096;14.404;2023-02-22T17:45:06;5.07;;;3.15;;
65656;SDS011;57397;50.096;14.404;2023-02-22T17:47:41;4.72;;;3.33;;